sensor_id;sensor_type;location;lat;lon;timestamp;P1;durP1;ratioP1;P2;durP2;ratioP2
9559;SDS011;4818;50.860;4.648;2023-04-19T00:02:09;26.65;;;17.98;;
9559;SDS011;4818;50.860;4.648;2023-04-19T00:04:35;26.92;;;17.90;;
9559;SDS011;4818;50.860;4.648;2023-04-19T00:07:04;28.73;;;17.42;;
9559;SDS011;4818;50.860;4.648;2023-04-19T00:09:30;26.90;;;18.02;;
9559;SDS011;4818;50.860;4.648;2023-04-19T00:11:56;28.05;;;18.25;;
9559;SDS011;4818;50.860;4.648;2023-04-19T00:14:22;29.25;;;17.88;;
9559;SDS011;4818;50.860;4.648;2023-04-19T00:16:48;27.63;;;17.00;;
9559;SDS011;4818;50.860;4.648;2023-04-19T00:19:14;26.90;;;17.65;;
9559;SDS011;4818;50.860;4.648;2023-04-19T00:21:41;26.95;;;17.83;;
9559;SDS011;4818;50.860;4.648;2023-04-19T00:24:07;25.52;;;17.23;;
9559;SDS011;4818;50.860;4.648;2023-04-19T00:26:33;27.17;;;17.45;;
9559;SDS011;4818;50.860;4.648;2023-04-19T00:29:01;25.70;;;17.85;;
9559;SDS011;4818;50.860;4.648;2023-04-19T00:31:28;28.20;;;18.30;;
9559;SDS011;4818;50.860;4.648;2023-04-19T00:33:54;26.13;;;17.80;;
9559;SDS011;4818;50.860;4.648;2023-04-19T00:36:20;27.08;;;17.05;;
9559;SDS011;4818;50.860;4.648;2023-04-19T00:38:46;28.58;;;18.50;;
9559;SDS011;4818;50.860;4.648;2023-04-19T00:41:12;26.40;;;18.20;;
9559;SDS011;4818;50.860;4.648;2023-04-19T00:43:38;28.27;;;18.35;;
9559;SDS011;4818;50.860;4.648;2023-04-19T00:46:04;26.55;;;17.38;;
9559;SDS011;4818;50.860;4.648;2023-04-19T00:48:35;29.70;;;19.30;;
9559;SDS011;4818;50.860;4.648;2023-04-19T00:51:02;26.63;;;18.25;;
9559;SDS011;4818;50.860;4.648;2023-04-19T00:53:28;27.30;;;17.70;;
9559;SDS011;4818;50.860;4.648;2023-04-19T00:55:54;27.13;;;18.17;;
9559;SDS011;4818;50.860;4.648;2023-04-19T00:58:22;29.27;;;19.33;;
9559;SDS011;4818;50.860;4.648;2023-04-19T01:00:52;29.45;;;19.05;;
9559;SDS011;4818;50.860;4.648;2023-04-19T01:03:18;27.70;;;18.90;;
9559;SDS011;4818;50.860;4.648;2023-04-19T01:05:44;26.00;;;18.23;;
9559;SDS011;4818;50.860;4.648;2023-04-19T01:08:10;31.40;;;19.13;;
9559;SDS011;4818;50.860;4.648;2023-04-19T01:10:37;27.98;;;18.95;;
9559;SDS011;4818;50.860;4.648;2023-04-19T01:13:03;30.38;;;18.13;;
9559;SDS011;4818;50.860;4.648;2023-04-19T01:15:29;30.95;;;20.50;;
9559;SDS011;4818;50.860;4.648;2023-04-19T01:17:56;30.73;;;19.67;;
9559;SDS011;4818;50.860;4.648;2023-04-19T01:20:22;27.33;;;17.85;;
9559;SDS011;4818;50.860;4.648;2023-04-19T01:22:48;30.02;;;20.02;;
9559;SDS011;4818;50.860;4.648;2023-04-19T01:25:15;30.65;;;19.20;;
9559;SDS011;4818;50.860;4.648;2023-04-19T01:27:41;30.98;;;19.63;;
9559;SDS011;4818;50.860;4.648;2023-04-19T01:30:08;28.83;;;19.80;;
9559;SDS011;4818;50.860;4.648;2023-04-19T01:32:34;27.40;;;18.45;;
9559;SDS011;4818;50.860;4.648;2023-04-19T01:35:03;28.05;;;18.65;;
9559;SDS011;4818;50.860;4.648;2023-04-19T01:37:30;29.00;;;17.77;;
9559;SDS011;4818;50.860;4.648;2023-04-19T01:39:58;29.60;;;17.55;;
9559;SDS011;4818;50.860;4.648;2023-04-19T01:42:25;27.40;;;17.17;;
9559;SDS011;4818;50.860;4.648;2023-04-19T01:44:51;26.05;;;17.77;;
9559;SDS011;4818;50.860;4.648;2023-04-19T01:47:17;28.10;;;17.30;;
9559;SDS011;4818;50.860;4.648;2023-04-19T01:49:43;27.50;;;17.35;;
9559;SDS011;4818;50.860;4.648;2023-04-19T01:52:09;24.48;;;17.17;;
9559;SDS011;4818;50.860;4.648;2023-04-19T01:54:35;23.33;;;16.88;;
9559;SDS011;4818;50.860;4.648;2023-04-19T01:57:01;27.05;;;18.58;;
9559;SDS011;4818;50.860;4.648;2023-04-19T01:59:28;27.15;;;17.27;;
9559;SDS011;4818;50.860;4.648;2023-04-19T02:01:54;26.67;;;18.15;;
9559;SDS011;4818;50.860;4.648;2023-04-19T02:04:20;26.52;;;17.92;;
9559;SDS011;4818;50.860;4.648;2023-04-19T02:06:46;26.75;;;17.25;;
9559;SDS011;4818;50.860;4.648;2023-04-19T02:09:12;24.92;;;16.77;;
9559;SDS011;4818;50.860;4.648;2023-04-19T02:11:39;25.95;;;16.83;;
9559;SDS011;4818;50.860;4.648;2023-04-19T02:14:05;25.73;;;16.77;;
9559;SDS011;4818;50.860;4.648;2023-04-19T02:16:31;26.27;;;16.92;;
9559;SDS011;4818;50.860;4.648;2023-04-19T02:18:59;24.35;;;16.33;;
9559;SDS011;4818;50.860;4.648;2023-04-19T02:21:25;26.10;;;18.00;;
9559;SDS011;4818;50.860;4.648;2023-04-19T02:23:51;23.60;;;15.80;;
9559;SDS011;4818;50.860;4.648;2023-04-19T02:26:17;23.67;;;17.23;;
9559;SDS011;4818;50.860;4.648;2023-04-19T02:28:44;22.10;;;15.68;;
9559;SDS011;4818;50.860;4.648;2023-04-19T02:31:10;23.65;;;16.77;;
9559;SDS011;4818;50.860;4.648;2023-04-19T02:33:36;25.90;;;15.60;;
9559;SDS011;4818;50.860;4.648;2023-04-19T02:36:02;23.88;;;16.17;;
9559;SDS011;4818;50.860;4.648;2023-04-19T02:38:29;20.80;;;15.32;;
9559;SDS011;4818;50.860;4.648;2023-04-19T02:40:57;23.50;;;15.73;;
9559;SDS011;4818;50.860;4.648;2023-04-19T02:43:25;20.55;;;15.13;;
9559;SDS011;4818;50.860;4.648;2023-04-19T02:45:51;23.15;;;16.20;;
9559;SDS011;4818;50.860;4.648;2023-04-19T02:48:17;23.70;;;15.13;;
9559;SDS011;4818;50.860;4.648;2023-04-19T02:50:44;19.65;;;14.40;;
9559;SDS011;4818;50.860;4.648;2023-04-19T02:53:12;22.05;;;15.65;;
9559;SDS011;4818;50.860;4.648;2023-04-19T02:55:38;21.35;;;14.68;;
9559;SDS011;4818;50.860;4.648;2023-04-19T02:58:05;22.50;;;16.38;;
9559;SDS011;4818;50.860;4.648;2023-04-19T03:00:31;21.83;;;14.80;;
9559;SDS011;4818;50.860;4.648;2023-04-19T03:02:57;20.48;;;13.93;;
9559;SDS011;4818;50.860;4.648;2023-04-19T03:05:23;21.42;;;14.77;;
9559;SDS011;4818;50.860;4.648;2023-04-19T03:07:52;22.10;;;15.07;;
9559;SDS011;4818;50.860;4.648;2023-04-19T03:10:18;21.95;;;14.85;;
9559;SDS011;4818;50.860;4.648;2023-04-19T03:12:44;23.80;;;15.77;;
9559;SDS011;4818;50.860;4.648;2023-04-19T03:15:10;22.98;;;15.23;;
9559;SDS011;4818;50.860;4.648;2023-04-19T03:17:38;23.98;;;14.60;;
9559;SDS011;4818;50.860;4.648;2023-04-19T03:20:05;20.13;;;13.75;;
9559;SDS011;4818;50.860;4.648;2023-04-19T03:22:36;22.08;;;14.80;;
9559;SDS011;4818;50.860;4.648;2023-04-19T03:25:05;23.40;;;15.43;;
9559;SDS011;4818;50.860;4.648;2023-04-19T03:27:35;21.83;;;14.95;;
9559;SDS011;4818;50.860;4.648;2023-04-19T03:30:01;22.02;;;14.65;;
9559;SDS011;4818;50.860;4.648;2023-04-19T03:32:27;20.25;;;13.93;;
9559;SDS011;4818;50.860;4.648;2023-04-19T03:34:53;26.67;;;15.52;;
9559;SDS011;4818;50.860;4.648;2023-04-19T03:37:20;21.90;;;14.65;;
9559;SDS011;4818;50.860;4.648;2023-04-19T03:39:46;23.10;;;14.90;;
9559;SDS011;4818;50.860;4.648;2023-04-19T03:42:12;20.73;;;14.13;;
9559;SDS011;4818;50.860;4.648;2023-04-19T03:44:38;22.63;;;13.98;;
9559;SDS011;4818;50.860;4.648;2023-04-19T03:47:04;22.40;;;15.07;;
9559;SDS011;4818;50.860;4.648;2023-04-19T03:49:30;21.88;;;15.27;;
9559;SDS011;4818;50.860;4.648;2023-04-19T03:51:56;21.77;;;15.20;;
9559;SDS011;4818;50.860;4.648;2023-04-19T03:54:25;24.70;;;15.88;;
9559;SDS011;4818;50.860;4.648;2023-04-19T03:56:51;20.60;;;15.13;;
9559;SDS011;4818;50.860;4.648;2023-04-19T03:59:17;24.13;;;15.25;;
9559;SDS011;4818;50.860;4.648;2023-04-19T04:01:43;24.98;;;15.75;;
9559;SDS011;4818;50.860;4.648;2023-04-19T04:04:09;22.88;;;15.52;;
9559;SDS011;4818;50.860;4.648;2023-04-19T04:06:36;24.00;;;15.57;;
9559;SDS011;4818;50.860;4.648;2023-04-19T04:09:03;23.98;;;15.65;;
9559;SDS011;4818;50.860;4.648;2023-04-19T04:11:30;23.15;;;14.88;;
9559;SDS011;4818;50.860;4.648;2023-04-19T04:13:58;26.25;;;16.67;;
9559;SDS011;4818;50.860;4.648;2023-04-19T04:16:24;24.02;;;15.90;;
9559;SDS011;4818;50.860;4.648;2023-04-19T04:18:50;23.73;;;16.67;;
9559;SDS011;4818;50.860;4.648;2023-04-19T04:21:17;23.48;;;15.32;;
9559;SDS011;4818;50.860;4.648;2023-04-19T04:23:43;25.77;;;16.33;;
9559;SDS011;4818;50.860;4.648;2023-04-19T04:26:09;23.95;;;15.25;;
9559;SDS011;4818;50.860;4.648;2023-04-19T04:28:37;24.60;;;15.40;;
9559;SDS011;4818;50.860;4.648;2023-04-19T04:31:04;24.95;;;16.45;;
9559;SDS011;4818;50.860;4.648;2023-04-19T04:33:30;25.88;;;16.27;;
9559;SDS011;4818;50.860;4.648;2023-04-19T04:35:56;22.45;;;14.63;;
9559;SDS011;4818;50.860;4.648;2023-04-19T04:38:23;26.50;;;16.42;;
9559;SDS011;4818;50.860;4.648;2023-04-19T04:40:53;28.67;;;16.83;;
9559;SDS011;4818;50.860;4.648;2023-04-19T04:43:22;22.63;;;15.95;;
9559;SDS011;4818;50.860;4.648;2023-04-19T04:45:50;24.25;;;15.90;;
9559;SDS011;4818;50.860;4.648;2023-04-19T04:50:45;25.48;;;16.48;;
9559;SDS011;4818;50.860;4.648;2023-04-19T04:53:11;26.70;;;15.70;;
9559;SDS011;4818;50.860;4.648;2023-04-19T04:55:37;24.25;;;15.82;;
9559;SDS011;4818;50.860;4.648;2023-04-19T04:58:03;27.40;;;16.48;;
9559;SDS011;4818;50.860;4.648;2023-04-19T05:00:30;28.45;;;16.90;;
9559;SDS011;4818;50.860;4.648;2023-04-19T05:02:56;30.55;;;17.65;;
9559;SDS011;4818;50.860;4.648;2023-04-19T05:05:23;26.55;;;17.30;;
9559;SDS011;4818;50.860;4.648;2023-04-19T05:07:51;27.73;;;16.97;;
9559;SDS011;4818;50.860;4.648;2023-04-19T05:10:18;26.05;;;16.90;;
9559;SDS011;4818;50.860;4.648;2023-04-19T05:12:44;25.45;;;15.90;;
9559;SDS011;4818;50.860;4.648;2023-04-19T05:15:10;28.83;;;16.90;;
9559;SDS011;4818;50.860;4.648;2023-04-19T05:17:36;26.75;;;16.83;;
9559;SDS011;4818;50.860;4.648;2023-04-19T05:20:02;28.45;;;18.35;;
9559;SDS011;4818;50.860;4.648;2023-04-19T05:22:30;29.55;;;18.02;;
9559;SDS011;4818;50.860;4.648;2023-04-19T05:24:56;28.55;;;17.30;;
9559;SDS011;4818;50.860;4.648;2023-04-19T05:27:22;31.95;;;18.65;;
9559;SDS011;4818;50.860;4.648;2023-04-19T05:29:48;28.40;;;17.13;;
9559;SDS011;4818;50.860;4.648;2023-04-19T05:32:17;34.80;;;18.75;;
9559;SDS011;4818;50.860;4.648;2023-04-19T05:34:44;36.88;;;18.85;;
9559;SDS011;4818;50.860;4.648;2023-04-19T05:37:10;26.30;;;17.10;;
9559;SDS011;4818;50.860;4.648;2023-04-19T05:39:36;29.92;;;18.40;;
9559;SDS011;4818;50.860;4.648;2023-04-19T05:42:03;29.83;;;18.52;;
9559;SDS011;4818;50.860;4.648;2023-04-19T05:44:29;26.05;;;17.55;;
9559;SDS011;4818;50.860;4.648;2023-04-19T05:46:55;31.70;;;18.70;;
9559;SDS011;4818;50.860;4.648;2023-04-19T05:49:21;29.75;;;18.33;;
9559;SDS011;4818;50.860;4.648;2023-04-19T05:51:47;28.65;;;17.15;;
9559;SDS011;4818;50.860;4.648;2023-04-19T05:54:18;27.88;;;17.95;;
9559;SDS011;4818;50.860;4.648;2023-04-19T05:56:45;29.38;;;17.20;;
9559;SDS011;4818;50.860;4.648;2023-04-19T05:59:11;27.48;;;17.17;;
9559;SDS011;4818;50.860;4.648;2023-04-19T06:01:38;28.38;;;17.23;;
9559;SDS011;4818;50.860;4.648;2023-04-19T06:04:04;30.98;;;17.58;;
9559;SDS011;4818;50.860;4.648;2023-04-19T06:06:30;26.88;;;16.88;;
9559;SDS011;4818;50.860;4.648;2023-04-19T06:08:57;26.80;;;17.98;;
9559;SDS011;4818;50.860;4.648;2023-04-19T06:11:23;26.95;;;16.83;;
9559;SDS011;4818;50.860;4.648;2023-04-19T06:13:49;30.25;;;17.33;;
9559;SDS011;4818;50.860;4.648;2023-04-19T06:16:18;25.70;;;16.50;;
9559;SDS011;4818;50.860;4.648;2023-04-19T06:18:44;26.42;;;17.02;;
9559;SDS011;4818;50.860;4.648;2023-04-19T06:21:11;28.02;;;15.70;;
9559;SDS011;4818;50.860;4.648;2023-04-19T06:23:37;27.25;;;16.65;;
9559;SDS011;4818;50.860;4.648;2023-04-19T06:26:03;24.77;;;15.98;;
9559;SDS011;4818;50.860;4.648;2023-04-19T06:28:29;28.10;;;15.32;;
9559;SDS011;4818;50.860;4.648;2023-04-19T06:30:55;31.17;;;16.38;;
9559;SDS011;4818;50.860;4.648;2023-04-19T06:33:21;23.55;;;15.32;;
9559;SDS011;4818;50.860;4.648;2023-04-19T06:35:48;26.42;;;15.70;;
9559;SDS011;4818;50.860;4.648;2023-04-19T06:38:14;23.75;;;16.10;;
9559;SDS011;4818;50.860;4.648;2023-04-19T06:40:40;24.77;;;16.10;;
9559;SDS011;4818;50.860;4.648;2023-04-19T06:43:06;23.08;;;14.27;;
9559;SDS011;4818;50.860;4.648;2023-04-19T06:45:32;25.88;;;16.15;;
9559;SDS011;4818;50.860;4.648;2023-04-19T06:47:58;25.27;;;15.27;;
9559;SDS011;4818;50.860;4.648;2023-04-19T06:50:25;20.52;;;14.10;;
9559;SDS011;4818;50.860;4.648;2023-04-19T06:52:54;26.07;;;15.07;;
9559;SDS011;4818;50.860;4.648;2023-04-19T06:55:21;24.45;;;15.73;;
9559;SDS011;4818;50.860;4.648;2023-04-19T06:57:49;26.13;;;14.40;;
9559;SDS011;4818;50.860;4.648;2023-04-19T07:00:15;22.35;;;13.30;;
9559;SDS011;4818;50.860;4.648;2023-04-19T07:02:41;21.98;;;13.57;;
9559;SDS011;4818;50.860;4.648;2023-04-19T07:05:07;21.88;;;13.73;;
9559;SDS011;4818;50.860;4.648;2023-04-19T07:07:34;25.27;;;13.32;;
9559;SDS011;4818;50.860;4.648;2023-04-19T07:10:02;20.65;;;13.65;;
9559;SDS011;4818;50.860;4.648;2023-04-19T07:12:28;18.77;;;12.10;;
9559;SDS011;4818;50.860;4.648;2023-04-19T07:14:54;17.55;;;12.50;;
9559;SDS011;4818;50.860;4.648;2023-04-19T07:17:24;19.10;;;13.02;;
9559;SDS011;4818;50.860;4.648;2023-04-19T07:19:50;25.42;;;14.23;;
9559;SDS011;4818;50.860;4.648;2023-04-19T07:22:19;19.25;;;12.68;;
9559;SDS011;4818;50.860;4.648;2023-04-19T07:24:46;24.27;;;13.50;;
9559;SDS011;4818;50.860;4.648;2023-04-19T07:27:12;21.70;;;13.52;;
9559;SDS011;4818;50.860;4.648;2023-04-19T07:29:38;18.85;;;12.50;;
9559;SDS011;4818;50.860;4.648;2023-04-19T07:32:06;19.73;;;12.65;;
9559;SDS011;4818;50.860;4.648;2023-04-19T07:34:32;20.63;;;12.82;;
9559;SDS011;4818;50.860;4.648;2023-04-19T07:36:58;17.45;;;11.82;;
9559;SDS011;4818;50.860;4.648;2023-04-19T07:39:24;17.70;;;12.70;;
9559;SDS011;4818;50.860;4.648;2023-04-19T07:41:51;19.08;;;11.27;;
9559;SDS011;4818;50.860;4.648;2023-04-19T07:44:17;18.85;;;12.68;;
9559;SDS011;4818;50.860;4.648;2023-04-19T07:46:43;16.05;;;10.45;;
9559;SDS011;4818;50.860;4.648;2023-04-19T07:49:10;17.02;;;11.40;;
9559;SDS011;4818;50.860;4.648;2023-04-19T07:51:36;15.23;;;10.27;;
9559;SDS011;4818;50.860;4.648;2023-04-19T07:54:02;14.45;;;10.20;;
9559;SDS011;4818;50.860;4.648;2023-04-19T07:56:28;13.18;;;9.18;;
9559;SDS011;4818;50.860;4.648;2023-04-19T07:58:55;11.13;;;8.70;;
9559;SDS011;4818;50.860;4.648;2023-04-19T08:01:21;13.02;;;9.43;;
9559;SDS011;4818;50.860;4.648;2023-04-19T08:03:47;15.15;;;8.98;;
9559;SDS011;4818;50.860;4.648;2023-04-19T08:06:13;12.30;;;8.95;;
9559;SDS011;4818;50.860;4.648;2023-04-19T08:08:39;13.57;;;8.75;;
9559;SDS011;4818;50.860;4.648;2023-04-19T08:11:08;11.43;;;8.80;;
9559;SDS011;4818;50.860;4.648;2023-04-19T08:13:34;10.82;;;8.82;;
9559;SDS011;4818;50.860;4.648;2023-04-19T08:16:00;11.75;;;7.72;;
9559;SDS011;4818;50.860;4.648;2023-04-19T08:18:29;12.27;;;7.78;;
9559;SDS011;4818;50.860;4.648;2023-04-19T08:20:55;12.98;;;8.43;;
9559;SDS011;4818;50.860;4.648;2023-04-19T08:23:22;13.95;;;9.25;;
9559;SDS011;4818;50.860;4.648;2023-04-19T08:25:48;13.07;;;9.15;;
9559;SDS011;4818;50.860;4.648;2023-04-19T08:28:17;11.77;;;8.40;;
9559;SDS011;4818;50.860;4.648;2023-04-19T08:30:43;11.95;;;9.15;;
9559;SDS011;4818;50.860;4.648;2023-04-19T08:33:14;13.93;;;9.63;;
9559;SDS011;4818;50.860;4.648;2023-04-19T08:35:41;12.35;;;8.38;;
9559;SDS011;4818;50.860;4.648;2023-04-19T08:38:07;12.80;;;9.40;;
9559;SDS011;4818;50.860;4.648;2023-04-19T08:40:38;12.57;;;8.77;;
9559;SDS011;4818;50.860;4.648;2023-04-19T08:43:06;14.80;;;8.85;;
9559;SDS011;4818;50.860;4.648;2023-04-19T08:45:32;12.18;;;9.05;;
9559;SDS011;4818;50.860;4.648;2023-04-19T08:48:00;10.57;;;8.60;;
9559;SDS011;4818;50.860;4.648;2023-04-19T08:52:58;9.43;;;8.43;;
9559;SDS011;4818;50.860;4.648;2023-04-19T08:55:25;8.57;;;6.75;;
9559;SDS011;4818;50.860;4.648;2023-04-19T09:00:20;8.98;;;7.10;;
9559;SDS011;4818;50.860;4.648;2023-04-19T09:02:48;9.98;;;7.55;;
9559;SDS011;4818;50.860;4.648;2023-04-19T09:05:14;10.13;;;6.85;;
9559;SDS011;4818;50.860;4.648;2023-04-19T09:07:46;9.45;;;7.65;;
9559;SDS011;4818;50.860;4.648;2023-04-19T09:10:18;8.40;;;7.05;;
9559;SDS011;4818;50.860;4.648;2023-04-19T09:12:59;10.35;;;7.63;;
9559;SDS011;4818;50.860;4.648;2023-04-19T09:15:36;8.65;;;7.05;;
9559;SDS011;4818;50.860;4.648;2023-04-19T09:18:07;6.25;;;5.50;;
9559;SDS011;4818;50.860;4.648;2023-04-19T09:20:37;7.32;;;6.63;;
9559;SDS011;4818;50.860;4.648;2023-04-19T09:23:06;9.43;;;7.05;;
9559;SDS011;4818;50.860;4.648;2023-04-19T09:25:49;7.47;;;5.72;;
9559;SDS011;4818;50.860;4.648;2023-04-19T09:28:17;8.00;;;7.25;;
9559;SDS011;4818;50.860;4.648;2023-04-19T09:30:43;7.82;;;6.22;;
9559;SDS011;4818;50.860;4.648;2023-04-19T09:35:58;7.13;;;5.97;;
9559;SDS011;4818;50.860;4.648;2023-04-19T09:38:25;7.32;;;6.32;;
9559;SDS011;4818;50.860;4.648;2023-04-19T09:41:29;8.30;;;5.90;;
9559;SDS011;4818;50.860;4.648;2023-04-19T09:43:48;6.57;;;5.82;;
9559;SDS011;4818;50.860;4.648;2023-04-19T09:46:33;8.80;;;6.70;;
9559;SDS011;4818;50.860;4.648;2023-04-19T09:51:47;8.85;;;6.10;;
9559;SDS011;4818;50.860;4.648;2023-04-19T09:54:14;7.93;;;5.43;;
9559;SDS011;4818;50.860;4.648;2023-04-19T09:56:40;9.43;;;5.20;;
9559;SDS011;4818;50.860;4.648;2023-04-19T09:59:10;5.47;;;4.70;;
9559;SDS011;4818;50.860;4.648;2023-04-19T10:01:38;5.72;;;5.05;;
9559;SDS011;4818;50.860;4.648;2023-04-19T10:04:05;6.60;;;5.20;;
9559;SDS011;4818;50.860;4.648;2023-04-19T10:06:31;6.50;;;4.53;;
9559;SDS011;4818;50.860;4.648;2023-04-19T10:08:59;6.07;;;3.95;;
9559;SDS011;4818;50.860;4.648;2023-04-19T10:11:29;4.68;;;3.55;;
9559;SDS011;4818;50.860;4.648;2023-04-19T10:13:58;5.10;;;3.97;;
9559;SDS011;4818;50.860;4.648;2023-04-19T10:16:25;4.20;;;3.80;;
9559;SDS011;4818;50.860;4.648;2023-04-19T10:18:51;5.63;;;4.22;;
9559;SDS011;4818;50.860;4.648;2023-04-19T10:21:18;5.70;;;4.20;;
9559;SDS011;4818;50.860;4.648;2023-04-19T10:23:46;3.83;;;3.53;;
9559;SDS011;4818;50.860;4.648;2023-04-19T10:26:15;5.50;;;3.78;;
9559;SDS011;4818;50.860;4.648;2023-04-19T10:28:41;4.68;;;3.65;;
9559;SDS011;4818;50.860;4.648;2023-04-19T10:31:10;4.70;;;3.83;;
9559;SDS011;4818;50.860;4.648;2023-04-19T10:33:37;4.53;;;3.83;;
9559;SDS011;4818;50.860;4.648;2023-04-19T10:36:13;5.47;;;3.38;;
9559;SDS011;4818;50.860;4.648;2023-04-19T10:41:07;4.55;;;3.53;;
9559;SDS011;4818;50.860;4.648;2023-04-19T10:43:36;4.95;;;4.05;;
9559;SDS011;4818;50.860;4.648;2023-04-19T10:46:07;5.07;;;3.97;;
9559;SDS011;4818;50.860;4.648;2023-04-19T10:48:56;4.43;;;4.03;;
9559;SDS011;4818;50.860;4.648;2023-04-19T10:51:27;4.13;;;3.25;;
9559;SDS011;4818;50.860;4.648;2023-04-19T10:53:54;5.47;;;3.90;;
9559;SDS011;4818;50.860;4.648;2023-04-19T10:56:34;6.60;;;4.32;;
9559;SDS011;4818;50.860;4.648;2023-04-19T10:59:11;4.43;;;3.35;;
9559;SDS011;4818;50.860;4.648;2023-04-19T11:01:42;6.50;;;4.68;;
9559;SDS011;4818;50.860;4.648;2023-04-19T11:09:30;6.10;;;4.55;;
9559;SDS011;4818;50.860;4.648;2023-04-19T11:14:25;5.72;;;4.82;;
9559;SDS011;4818;50.860;4.648;2023-04-19T11:16:51;8.57;;;5.13;;
9559;SDS011;4818;50.860;4.648;2023-04-19T11:19:18;5.38;;;4.88;;
9559;SDS011;4818;50.860;4.648;2023-04-19T11:21:45;5.40;;;4.63;;
9559;SDS011;4818;50.860;4.648;2023-04-19T11:24:16;6.38;;;4.82;;
9559;SDS011;4818;50.860;4.648;2023-04-19T11:26:45;6.78;;;4.53;;
9559;SDS011;4818;50.860;4.648;2023-04-19T11:29:14;8.15;;;4.68;;
9559;SDS011;4818;50.860;4.648;2023-04-19T11:31:44;8.00;;;5.53;;
9559;SDS011;4818;50.860;4.648;2023-04-19T11:34:11;5.68;;;5.07;;
9559;SDS011;4818;50.860;4.648;2023-04-19T11:36:55;5.63;;;4.38;;
9559;SDS011;4818;50.860;4.648;2023-04-19T11:39:25;8.50;;;4.78;;
9559;SDS011;4818;50.860;4.648;2023-04-19T11:41:54;7.57;;;5.28;;
9559;SDS011;4818;50.860;4.648;2023-04-19T11:44:23;7.10;;;5.45;;
9559;SDS011;4818;50.860;4.648;2023-04-19T11:46:59;5.80;;;4.97;;
9559;SDS011;4818;50.860;4.648;2023-04-19T11:49:32;5.80;;;5.20;;
9559;SDS011;4818;50.860;4.648;2023-04-19T11:51:59;6.90;;;4.82;;
9559;SDS011;4818;50.860;4.648;2023-04-19T11:54:30;6.97;;;4.25;;
9559;SDS011;4818;50.860;4.648;2023-04-19T11:56:59;6.75;;;4.95;;
9559;SDS011;4818;50.860;4.648;2023-04-19T11:59:27;7.85;;;5.07;;
9559;SDS011;4818;50.860;4.648;2023-04-19T12:01:54;5.38;;;4.43;;
9559;SDS011;4818;50.860;4.648;2023-04-19T12:04:20;6.85;;;4.75;;
9559;SDS011;4818;50.860;4.648;2023-04-19T12:06:54;6.38;;;4.95;;
9559;SDS011;4818;50.860;4.648;2023-04-19T12:09:21;5.63;;;4.82;;
9559;SDS011;4818;50.860;4.648;2023-04-19T12:11:48;5.00;;;4.15;;
9559;SDS011;4818;50.860;4.648;2023-04-19T12:14:15;6.18;;;4.18;;
9559;SDS011;4818;50.860;4.648;2023-04-19T12:16:45;11.75;;;4.45;;
9559;SDS011;4818;50.860;4.648;2023-04-19T12:19:17;7.00;;;4.07;;
9559;SDS011;4818;50.860;4.648;2023-04-19T12:21:46;4.78;;;3.28;;
9559;SDS011;4818;50.860;4.648;2023-04-19T12:24:15;5.30;;;3.72;;
9559;SDS011;4818;50.860;4.648;2023-04-19T12:26:52;6.47;;;3.80;;
9559;SDS011;4818;50.860;4.648;2023-04-19T12:29:19;5.47;;;3.58;;
9559;SDS011;4818;50.860;4.648;2023-04-19T12:31:45;7.03;;;3.03;;
9559;SDS011;4818;50.860;4.648;2023-04-19T12:34:11;7.78;;;3.00;;
9559;SDS011;4818;50.860;4.648;2023-04-19T12:36:40;4.30;;;2.90;;
9559;SDS011;4818;50.860;4.648;2023-04-19T12:39:08;3.38;;;2.53;;
9559;SDS011;4818;50.860;4.648;2023-04-19T12:41:34;5.55;;;2.50;;
9559;SDS011;4818;50.860;4.648;2023-04-19T12:44:00;5.80;;;3.10;;
9559;SDS011;4818;50.860;4.648;2023-04-19T12:46:27;5.93;;;3.38;;
9559;SDS011;4818;50.860;4.648;2023-04-19T12:48:53;8.50;;;2.47;;
9559;SDS011;4818;50.860;4.648;2023-04-19T12:51:19;5.05;;;2.28;;
9559;SDS011;4818;50.860;4.648;2023-04-19T12:53:48;7.43;;;1.77;;
9559;SDS011;4818;50.860;4.648;2023-04-19T12:56:16;7.10;;;2.75;;
9559;SDS011;4818;50.860;4.648;2023-04-19T12:58:42;3.40;;;2.08;;
9559;SDS011;4818;50.860;4.648;2023-04-19T13:01:11;3.03;;;1.70;;
9559;SDS011;4818;50.860;4.648;2023-04-19T13:03:37;3.33;;;1.83;;
9559;SDS011;4818;50.860;4.648;2023-04-19T13:06:03;3.78;;;1.60;;
9559;SDS011;4818;50.860;4.648;2023-04-19T13:08:30;3.22;;;1.30;;
9559;SDS011;4818;50.860;4.648;2023-04-19T13:10:56;6.32;;;1.90;;
9559;SDS011;4818;50.860;4.648;2023-04-19T13:13:25;6.57;;;2.10;;
9559;SDS011;4818;50.860;4.648;2023-04-19T13:15:51;6.57;;;2.38;;
9559;SDS011;4818;50.860;4.648;2023-04-19T13:18:18;6.32;;;2.53;;
9559;SDS011;4818;50.860;4.648;2023-04-19T13:20:44;3.17;;;2.38;;
9559;SDS011;4818;50.860;4.648;2023-04-19T13:23:10;4.78;;;3.13;;
9559;SDS011;4818;50.860;4.648;2023-04-19T13:25:36;7.38;;;2.85;;
9559;SDS011;4818;50.860;4.648;2023-04-19T13:28:02;7.07;;;2.53;;
9559;SDS011;4818;50.860;4.648;2023-04-19T13:30:29;8.63;;;2.13;;
9559;SDS011;4818;50.860;4.648;2023-04-19T13:32:55;4.30;;;1.70;;
9559;SDS011;4818;50.860;4.648;2023-04-19T13:35:21;3.67;;;1.30;;
9559;SDS011;4818;50.860;4.648;2023-04-19T13:37:47;5.75;;;1.67;;
9559;SDS011;4818;50.860;4.648;2023-04-19T13:40:15;5.72;;;2.30;;
9559;SDS011;4818;50.860;4.648;2023-04-19T13:42:41;3.05;;;1.23;;
9559;SDS011;4818;50.860;4.648;2023-04-19T13:45:08;4.20;;;0.93;;
9559;SDS011;4818;50.860;4.648;2023-04-19T13:47:34;2.28;;;0.93;;
9559;SDS011;4818;50.860;4.648;2023-04-19T13:50:00;2.22;;;0.82;;
9559;SDS011;4818;50.860;4.648;2023-04-19T13:52:26;2.03;;;0.70;;
9559;SDS011;4818;50.860;4.648;2023-04-19T13:54:52;2.67;;;0.80;;
9559;SDS011;4818;50.860;4.648;2023-04-19T13:57:18;2.00;;;0.65;;
9559;SDS011;4818;50.860;4.648;2023-04-19T13:59:47;2.05;;;1.23;;
9559;SDS011;4818;50.860;4.648;2023-04-19T14:02:13;6.40;;;0.90;;
9559;SDS011;4818;50.860;4.648;2023-04-19T14:04:39;1.83;;;0.70;;
9559;SDS011;4818;50.860;4.648;2023-04-19T14:07:06;1.63;;;0.50;;
9559;SDS011;4818;50.860;4.648;2023-04-19T14:09:32;2.05;;;0.80;;
9559;SDS011;4818;50.860;4.648;2023-04-19T14:11:58;2.40;;;0.60;;
9559;SDS011;4818;50.860;4.648;2023-04-19T14:14:24;6.50;;;0.70;;
9559;SDS011;4818;50.860;4.648;2023-04-19T14:16:50;2.33;;;0.75;;
9559;SDS011;4818;50.860;4.648;2023-04-19T14:19:16;3.90;;;0.70;;
9559;SDS011;4818;50.860;4.648;2023-04-19T14:21:42;1.15;;;0.40;;
9559;SDS011;4818;50.860;4.648;2023-04-19T14:24:09;1.63;;;0.60;;
9559;SDS011;4818;50.860;4.648;2023-04-19T14:26:37;3.22;;;0.55;;
9559;SDS011;4818;50.860;4.648;2023-04-19T14:29:06;2.60;;;0.70;;
9559;SDS011;4818;50.860;4.648;2023-04-19T14:31:32;2.25;;;0.63;;
9559;SDS011;4818;50.860;4.648;2023-04-19T14:34:00;2.50;;;0.90;;
9559;SDS011;4818;50.860;4.648;2023-04-19T14:36:31;2.03;;;0.90;;
9559;SDS011;4818;50.860;4.648;2023-04-19T14:38:57;2.50;;;0.60;;
9559;SDS011;4818;50.860;4.648;2023-04-19T14:41:23;1.40;;;0.50;;
9559;SDS011;4818;50.860;4.648;2023-04-19T14:43:50;1.92;;;0.85;;
9559;SDS011;4818;50.860;4.648;2023-04-19T14:46:16;2.17;;;0.82;;
9559;SDS011;4818;50.860;4.648;2023-04-19T14:48:42;11.27;;;1.40;;
9559;SDS011;4818;50.860;4.648;2023-04-19T14:51:08;1.52;;;1.27;;
9559;SDS011;4818;50.860;4.648;2023-04-19T14:53:34;2.55;;;0.82;;
9559;SDS011;4818;50.860;4.648;2023-04-19T14:56:02;1.88;;;0.82;;
9559;SDS011;4818;50.860;4.648;2023-04-19T14:58:28;1.95;;;0.82;;
9559;SDS011;4818;50.860;4.648;2023-04-19T15:00:54;4.13;;;1.10;;
9559;SDS011;4818;50.860;4.648;2023-04-19T15:03:21;2.53;;;0.60;;
9559;SDS011;4818;50.860;4.648;2023-04-19T15:05:47;1.77;;;0.63;;
9559;SDS011;4818;50.860;4.648;2023-04-19T15:08:13;2.47;;;0.80;;
9559;SDS011;4818;50.860;4.648;2023-04-19T15:10:39;7.82;;;0.52;;
9559;SDS011;4818;50.860;4.648;2023-04-19T15:13:05;3.70;;;1.00;;
9559;SDS011;4818;50.860;4.648;2023-04-19T15:15:32;1.17;;;0.65;;
9559;SDS011;4818;50.860;4.648;2023-04-19T15:17:58;9.82;;;0.90;;
9559;SDS011;4818;50.860;4.648;2023-04-19T15:20:24;3.63;;;0.82;;
9559;SDS011;4818;50.860;4.648;2023-04-19T15:22:51;2.25;;;0.50;;
9559;SDS011;4818;50.860;4.648;2023-04-19T15:25:17;2.22;;;0.60;;